• Join FlightAware (Why Join?)
  • Login
  • US Flag 
05:43PM EDT


 

Airport Tracker/Info


-or-


 

Live Flight TrackerFlight Track Log ✈ WIG7117 ✈ 08-Apr-2014 ✈ KALB - KSYR

Flight Track Log - Related Links

Times and Time Zones

All times are in EDT time to prevent confusion due to time zone crossing. See the WIG7117 flight status page for this flight to view local times or setup timezone preferences in your user account.

Time Position Orientation Groundspeed Altitude Reporting Facility
EDT Latitude Longitude Course Direction KTS MPH feet Rate Location/Type
10:26PM 42.7269 -73.8067 184° South 113 130 1,000  Level Boston Center
10:26PM 42.7206 -73.8072 184° South 115 132 1,300 1,200 Climbing Boston Center
10:27PM 42.7236 -73.8375 278° West 80 92 2,600 1,320 Climbing Boston Center
10:28PM 42.7311 -73.8592 295° West 82 94 3,700 1,260 Climbing Boston Center
10:28PM 42.7306 -73.8689 266° West 84 97 4,000 1,200 Climbing Boston Center
10:29PM 42.7350 -73.8908 285° West 82 94 5,000 1,260 Climbing Boston Center
10:30PM 42.7392 -73.9231 280° West 86 99 6,200 600 Climbing Boston Center
10:31PM 42.7467 -73.9653 284° West 117 135 6,200 -60 Level Boston Center
10:32PM 42.7564 -74.0144 285° West 130 150 6,100 -60 Descending Boston Center
10:33PM 42.7642 -74.0628 282° West 131 151 6,100  Level Boston Center
10:34PM 42.7725 -74.1106 283° West 130 150 6,100  Level Boston Center
10:35PM 42.7817 -74.1597 284° West 126 145 6,100 -60 Level Boston Center
10:36PM 42.7892 -74.2050 283° West 124 143 6,000 60 Descending Boston Center
10:36PM 42.7933 -74.2303 283° West 123 142 6,200 60 Climbing Boston Center
10:37PM 42.7969 -74.2494 284° West 124 143 6,100 -120 Descending Boston Center
10:38PM 42.8050 -74.2969 283° West 126 145 6,100  Level Boston Center
10:39PM 42.8125 -74.3433 282° West 126 145 6,100  Level Boston Center
10:40PM 42.8194 -74.3881 282° West 125 144 6,100  Level Boston Center
10:41PM 42.8272 -74.4342 283° West 124 143 6,100  Level Boston Center
10:42PM 42.8350 -74.4831 282° West 124 143 6,200  Climbing Boston Center
10:43PM 42.8431 -74.5294 283° West 124 143 6,200  Level Boston Center
10:44PM 42.8531 -74.5756 286° West 125 144 6,200  Level Boston Center
10:45PM 42.8619 -74.6219 285° West 125 144 6,200  Level Boston Center
10:46PM 42.8717 -74.6689 286° West 126 145 6,200  Level Boston Center
10:47PM 42.8792 -74.7153 282° West 126 145 6,200  Level Boston Center
10:48PM 42.8883 -74.7617 285° West 126 145 6,200  Level Boston Center
10:49PM 42.8964 -74.8092 283° West 127 146 6,200  Level Boston Center
10:50PM 42.9053 -74.8553 285° West 127 146 6,200  Level Boston Center
10:51PM 42.9139 -74.9036 284° West 127 146 6,200  Level Boston Center
10:52PM 42.9253 -74.9544 287° West 126 145 6,200  Level Boston Center
10:53PM 42.9344 -75.0036 284° West 132 152 6,200  Level Boston Center
10:54PM 42.9433 -75.0450 286° West 128 147 6,200  Level Boston Center
10:55PM 42.9528 -75.0928 285° West 129 148 6,200  Level Boston Center
10:56PM 42.9550 -75.1547 273° West 138 159 6,200  Level Boston Center
10:57PM 42.9614 -75.2089 279° West 136 157 6,200  Level Boston Center
10:58PM 42.9667 -75.2433 282° West 131 151 6,200  Level Boston Center
10:59PM 42.9783 -75.3019 285° West 131 151 6,200 -300 Level Boston Center
11:00PM 42.9881 -75.3522 285° West 131 151 5,600 -660 Descending Boston Center
11:01PM 43.0039 -75.4081 291° West 143 165 4,900 -840 Descending Boston Center
11:02PM 43.0172 -75.4583 290° West 147 169 4,000 -420 Descending Boston Center
11:03PM 43.0267 -75.5064 285° West 139 160 4,100  Climbing Boston Center
11:04PM 43.0369 -75.5503 288° West 130 150 4,100 -240 Level Boston Center
11:05PM 43.0508 -75.6025 290° West 130 150 3,700 -420 Descending Boston Center
11:06PM 43.0581 -75.6631 279° West 142 163 3,300 -360 Descending Boston Center
11:07PM 43.0656 -75.7025 285° West 149 171 3,100 -300 Descending Boston Center
11:07PM 43.0644 -75.7144 263° West 140 161 3,000 -420 Descending Boston Center
11:08PM 43.0703 -75.7686 278° West 139 160 2,600 -240 Descending Boston Center
11:09PM 43.0747 -75.8033 280° West 139 160 2,600  Level Boston Center
11:09PM 43.0764 -75.8231 277° West 142 163 2,600  Level Boston Center
11:10PM 43.0806 -75.8586 279° West 139 160 2,600 -120 Level Boston Center
11:10PM 43.0828 -75.8744 281° West 149 171 2,500 -540 Descending Boston Center
11:11PM 43.0883 -75.9142 281° West 144 166 2,100 -420 Descending Boston Center
11:11PM 43.0900 -75.9322 277° West 149 171 2,100 -120 Level Boston Center
11:12PM 43.0944 -75.9664 280° West 144 166 2,000 -120 Descending Boston Center
11:12PM 43.0947 -75.9806 272° West 135 155 2,000 -420 Level Boston Center
11:13PM 43.1000 -76.0175 281° West 142 163 1,600 -540 Descending Boston Center
11:13PM 43.1036 -76.0300 292° West 135 155 1,500 -720 Descending Boston Center
11:14PM 43.1114 -76.0628 288° West 133 153 900 -840 Descending Boston Center
11:14PM 43.1100 -76.0814 264° West 123 142 700 -540 Descending Boston Center
11:15PM 43.1111 -76.1061 274° West 123 142 400 -360 Descending Boston Center
11:17PM 43.1112 -76.1063 158° South  Level Estimated
11:24PM 43.1112 -76.1063 270° West  Level Estimated
11:25PM 43.1112 -76.1063 158° South  Level Estimated